Flight Track Log - Related Links

Times and Time Zones

All times are in EDT time to prevent confusion due to time zone crossing. See the PDT4226 flight status page for this flight to view local times or setup timezone preferences in your user account.

Time Position Orientation Groundspeed Altitude Reporting Facility
EDT Latitude Longitude Course Direction KTS MPH feet Rate Location/Type
Fri 01:52:00 PM 42.0306 -75.9214 180° South  Level Estimated
Fri 01:53:00 PM 41.9696 -75.9240 182° South  Level FlightAware Approximate
Fri 01:54:00 PM 41.9086 -75.9266 182° South  Level FlightAware Approximate
Fri 01:55:00 PM 41.8496 -75.9061 154° Southeast  Level Estimated
Fri 01:56:00 PM 41.7905 -75.8856 160° South  Level Estimated
Fri 01:57:00 PM 41.7315 -75.8652 159° South  Level Estimated
Fri 01:58:00 PM 41.6718 -75.8483 168° South  Level FlightAware Approximate
Fri 01:59:00 PM 41.6127 -75.8278 153° Southeast  Level Estimated
Fri 02:00:00 PM 41.5537 -75.8074 161° South  Level Estimated
Fri 02:01:00 PM 41.4956 -75.7822 162° South  Level FlightAware Approximate
Fri 02:02:00 PM 41.4376 -75.7571 162° South  Level FlightAware Approximate
Fri 02:03:00 PM 41.3796 -75.7320 162° South  Level FlightAware Approximate
Fri 02:04:00 PM 41.3204 -75.7123 162° South  Level Estimated
Fri 02:05:00 PM 41.2627 -75.6860 161° South  Level FlightAware Approximate
Fri 02:06:00 PM 41.2050 -75.6597 161° South  Level FlightAware Approximate
Fri 02:07:00 PM 41.1473 -75.6334 161° South  Level FlightAware Approximate
Fri 02:08:00 PM 41.0879 -75.6148 159° South  Level Estimated
Fri 02:09:00 PM 41.0285 -75.5962 163° South  Level Estimated
Fri 02:10:00 PM 40.9710 -75.5691 160° South  Level FlightAware Approximate
Fri 02:11:00 PM 40.9136 -75.5421 160° South  Level FlightAware Approximate
Fri 02:12:00 PM 40.8560 -75.5152 160° South  Level FlightAware Approximate
Fri 02:13:00 PM 40.7964 -75.4983 190° South  Level Estimated
Fri 02:14:00 PM 40.7354 -75.4986 180° South  Level FlightAware Approximate
Fri 02:15:00 PM 40.6744 -75.4990 180° South  Level FlightAware Approximate
Fri 02:16:00 PM 40.6134 -75.4993 180° South  Level FlightAware Approximate
Fri 02:17:00 PM 40.5545 -75.4786 187° South  Level Estimated
Fri 02:18:00 PM 40.4955 -75.4578 190° South  Level Estimated
Fri 02:18:18 PM 40.5000 -75.5500 182° South 240 276 6,000  Level Philadelphia TRACON
Fri 02:19:00 PM 40.4369 -75.4799 196° South  Level FlightAware Approximate
Fri 02:19:18 PM 40.4333 -75.5500 180° South 245 282 5,500  Level Philadelphia TRACON
Fri 02:20:00 PM 40.3782 -75.5020 196° South  Level FlightAware Approximate
Fri 02:20:18 PM 40.3667 -75.5500 180° South 258 297 5,000  Level Philadelphia TRACON
Fri 02:21:00 PM 40.3215 -75.4725 180° South  Level Estimated
Fri 02:21:12 PM 40.3167 -75.5000 143° Southeast 231 266 5,000  Level Philadelphia TRACON
Fri 02:22:00 PM 40.2634 -75.4423 143° Southeast  Level Estimated
Fri 02:22:06 PM 40.2667 -75.4500 143° Southeast 236 272 5,000  Level Philadelphia TRACON
Fri 02:23:00 PM 40.2009 -75.4453 182° South  Level FlightAware Approximate
Fri 02:23:12 PM 40.2167 -75.4000 143° Southeast 230 265 4,800  Level Philadelphia TRACON
Fri 02:24:06 PM 40.1667 -75.3500 143° Southeast 211 243 4,200 -421 Descending Philadelphia TRACON
Fri 02:25:06 PM 40.1333 -75.3000 131° Southeast 216 249 4,000 -100 Descending Philadelphia TRACON
Fri 02:26:06 PM 40.0667 -75.2667 159° South 212 244 4,000  Level Philadelphia TRACON
Fri 02:27:06 PM 40.0167 -75.2167 143° Southeast 204 235 4,000  Level Philadelphia TRACON
Fri 02:28:07 PM 39.9667 -75.2000 166° South 201 231 4,000  Level Philadelphia TRACON
Fri 02:29:01 PM 39.9333 -75.1667 143° Southeast 203 234 4,000  Level Philadelphia TRACON
Fri 02:30:07 PM 39.8667 -75.1333 159° South 205 236 4,000 -476 Level Philadelphia TRACON
Fri 02:31:07 PM 39.8167 -75.1000 153° Southeast 189 217 3,000 -550 Descending Philadelphia TRACON
Fri 02:32:07 PM 39.7833 -75.1167 201° Southwest 170 196 2,900 -500 Descending Philadelphia TRACON
Fri 02:33:07 PM 39.7667 -75.1667 247° West 159 183 2,000 -800 Descending Philadelphia TRACON
Fri 02:34:07 PM 39.8167 -75.2000 333° Northwest 154 177 1,300 -650 Descending Philadelphia TRACON
Fri 02:35:07 PM 39.8333 -75.2167 322° Northwest 111 128 700 -600 Descending Philadelphia TRACON

Login

Don't have an account? Register now (free) for customized features, flight alerts, and more!